Kezdőlap
METAR-TAF:

METAR-TAF

Repülőterek :

Cephalonia, Görögország

földrajzi szélesség: 38-07N, földrajzi hosszúság: 020-30E, magasság: 19 m

Jelenlegi meteorológiai megfigyelések

A jelentés 51 perccel ezelõtt készült, 09:50 UTC
Nyugati szél 4 kt
Hőmérséklet 23°C
Páratartalom 73%
Légköri nyomás 1020 hPa
Látótávolság 10 km, vagy több
Kevés felhő 1600 lábon

METAR: LGKF 190950Z 26004KT 9999 FEW016 23/18 Q1020

Idő: 13:41 (10:41 UTC)

Előrejelzés

A jelentés 2 órával és 41 perccel ezelõtt készült, 08:00 UTC
Az előrejelzés 19-én 09 óra UTC és 19-én 18 óra UTC között érvényes
Különbözõ irányokból fújó szél 3 kt
Látótávolság 10 km, vagy több
Kevés felhő 1600 lábon
19-én 12 óra UTC és 19-én 18 óra UTC között ideiglenes
Déli szél 7 kt

TAF: LGKF 190800Z 1909/1918 VRB03KT 9999 FEW016 TEMPO 1912/1918 18007KT

Meteorológiai megfigyelések és előrejelzések több, mint 4000 repülőtéren (METAR és TAF jelentéseket).

A térképen piros és sárga pontok jelzik az elérhető meteorológiai állomásokat.

Mozgassa az egeret a pont fölött, hogy megjelenjen az állomás neve.

Azután kattintson az időjárási megfigyelések és előrejelzések megtekintéséhez.

A térkép megváltoztatása: kattintson a fekete keresztel jelölt zöld gombra ráközelítéshez, a vonallal jelölt zöld gombra távolításhoz, vagy a zöld nyilakra a szomszédos térképek eléréséhez.


METAR-TAF: